createdAt,value
2023-04-07T00:01:35.833Z,16.03
2023-04-07T00:04:02.658Z,15.99
2023-04-07T00:06:30.967Z,15.98
2023-04-07T00:08:57.349Z,15.96
2023-04-07T00:11:23.827Z,15.94
2023-04-07T00:13:50.263Z,15.91
2023-04-07T00:16:16.733Z,15.88
2023-04-07T00:18:43.399Z,15.87
2023-04-07T00:21:09.851Z,15.86
2023-04-07T00:23:36.510Z,15.84
2023-04-07T00:26:02.958Z,15.81
2023-04-07T00:28:31.283Z,15.79
2023-04-07T00:30:57.806Z,15.78
2023-04-07T00:33:24.321Z,15.76
2023-04-07T00:35:50.787Z,15.74
2023-04-07T00:38:17.145Z,15.72
2023-04-07T00:40:43.584Z,15.70
2023-04-07T00:43:10.345Z,15.69
2023-04-07T00:45:36.777Z,15.67
2023-04-07T00:48:03.306Z,15.67
2023-04-07T00:50:29.695Z,15.64
2023-04-07T00:52:57.589Z,15.63
2023-04-07T00:55:24.138Z,15.60
2023-04-07T00:57:50.584Z,15.58
2023-04-07T01:00:17.396Z,15.55
2023-04-07T01:02:44.965Z,15.54
2023-04-07T01:05:12.048Z,15.51
2023-04-07T01:07:39.670Z,15.49
2023-04-07T01:10:06.562Z,15.48
2023-04-07T01:12:33.127Z,15.45
2023-04-07T01:14:59.850Z,15.42
2023-04-07T01:17:27.547Z,15.40
2023-04-07T01:19:56.090Z,15.37
2023-04-07T01:22:22.653Z,15.34
2023-04-07T01:24:49.064Z,15.33
2023-04-07T01:27:16.632Z,15.30
2023-04-07T01:29:47.173Z,15.28
2023-04-07T01:32:13.678Z,15.25
2023-04-07T01:34:42.416Z,15.22
2023-04-07T01:37:09.203Z,15.20
2023-04-07T01:39:38.938Z,15.17
2023-04-07T01:42:05.339Z,15.14
2023-04-07T01:44:31.843Z,15.11
2023-04-07T01:46:58.302Z,15.10
2023-04-07T01:49:29.047Z,15.07
2023-04-07T01:51:55.504Z,15.04
2023-04-07T01:54:21.929Z,15.01
2023-04-07T01:56:48.465Z,14.99
2023-04-07T01:59:16.870Z,14.97
2023-04-07T02:01:46.562Z,14.95
2023-04-07T02:04:13.255Z,14.92
2023-04-07T02:06:39.948Z,14.90
2023-04-07T02:09:06.521Z,14.86
2023-04-07T02:11:34.306Z,14.84
2023-04-07T02:14:00.675Z,14.81
2023-04-07T02:16:27.181Z,14.79
2023-04-07T02:18:53.631Z,14.78
2023-04-07T02:21:20.033Z,14.73
2023-04-07T02:23:46.618Z,14.71
2023-04-07T02:26:12.943Z,14.66
2023-04-07T02:28:40.598Z,14.64
2023-04-07T02:31:07.088Z,14.62
2023-04-07T02:33:33.550Z,14.61
2023-04-07T02:35:59.875Z,14.58
2023-04-07T02:38:28.575Z,14.55
2023-04-07T02:40:54.981Z,14.53
2023-04-07T02:43:21.578Z,14.49
2023-04-07T02:45:51.523Z,14.47
2023-04-07T02:48:18.217Z,14.44
2023-04-07T02:50:45.625Z,14.41
2023-04-07T02:53:12.109Z,14.39
2023-04-07T02:55:40.815Z,14.35
2023-04-07T02:58:07.408Z,14.32
2023-04-07T03:00:34.009Z,14.30
2023-04-07T03:03:02.846Z,14.28
2023-04-07T03:05:30.650Z,14.25
2023-04-07T03:07:57.130Z,14.22
2023-04-07T03:10:23.802Z,14.21
2023-04-07T03:12:50.321Z,14.17
2023-04-07T03:15:18.785Z,14.16
2023-04-07T03:17:45.570Z,14.13
2023-04-07T03:20:12.011Z,14.12
2023-04-07T03:22:38.472Z,14.10
2023-04-07T03:25:04.813Z,14.07
2023-04-07T03:27:31.253Z,14.07
2023-04-07T03:29:57.740Z,14.02
2023-04-07T03:32:26.624Z,14.01
2023-04-07T03:34:53.109Z,13.98
2023-04-07T03:37:19.888Z,13.96
2023-04-07T03:39:46.392Z,13.95
2023-04-07T03:42:12.844Z,13.92
2023-04-07T03:44:41.466Z,13.91
2023-04-07T03:47:07.935Z,13.89
2023-04-07T03:49:34.341Z,13.85
2023-04-07T03:52:01.049Z,13.83
2023-04-07T03:54:27.698Z,13.80
2023-04-07T03:56:54.448Z,13.78
2023-04-07T04:02:05.494Z,13.73
2023-04-07T04:04:32.120Z,13.70
2023-04-07T04:07:03.011Z,13.68
2023-04-07T04:09:32.318Z,13.67
2023-04-07T04:12:01.340Z,13.64
2023-04-07T04:14:28.651Z,13.63
2023-04-07T04:16:55.094Z,13.61
2023-04-07T04:19:21.492Z,13.59
2023-04-07T04:21:49.416Z,13.56
2023-04-07T04:24:15.976Z,13.54
2023-04-07T04:26:45.850Z,13.51
2023-04-07T04:29:12.352Z,13.49
2023-04-07T04:31:46.043Z,13.46
2023-04-07T04:34:13.825Z,13.44
2023-04-07T04:36:40.342Z,13.43
2023-04-07T04:39:06.903Z,13.41
2023-04-07T04:41:33.383Z,13.39
2023-04-07T04:43:59.822Z,13.38
2023-04-07T04:46:27.524Z,13.37
2023-04-07T04:48:57.724Z,13.35
2023-04-07T04:51:24.276Z,13.34
2023-04-07T04:53:51.012Z,13.33
2023-04-07T04:56:17.902Z,13.33
2023-04-07T04:58:46.415Z,13.35
2023-04-07T05:01:13.394Z,13.35
2023-04-07T05:03:42.238Z,13.33
2023-04-07T05:06:11.813Z,13.33
2023-04-07T05:08:42.634Z,13.43
2023-04-07T05:11:11.579Z,13.53
2023-04-07T05:13:41.106Z,13.80
2023-04-07T05:16:08.158Z,14.13
2023-04-07T05:18:34.891Z,14.43
2023-04-07T05:21:01.630Z,14.71
2023-04-07T05:23:28.057Z,14.94
2023-04-07T05:25:54.978Z,15.17
2023-04-07T05:28:25.928Z,15.37
2023-04-07T05:30:52.448Z,15.57
2023-04-07T05:33:20.853Z,15.72
2023-04-07T05:35:51.763Z,15.88
2023-04-07T05:38:21.174Z,16.02
2023-04-07T05:40:47.775Z,16.15
2023-04-07T05:43:15.513Z,16.26
2023-04-07T05:45:44.464Z,16.35
2023-04-07T05:48:11.264Z,16.41
2023-04-07T05:50:39.049Z,16.46
2023-04-07T05:53:23.523Z,16.51
2023-04-07T05:55:50.644Z,16.37
2023-04-07T05:58:17.067Z,16.33
2023-04-07T06:00:43.417Z,16.38
2023-04-07T06:03:09.964Z,16.48
2023-04-07T06:05:46.524Z,16.58
2023-04-07T06:08:13.215Z,16.67
2023-04-07T06:10:42.220Z,16.73
2023-04-07T06:13:14.658Z,16.77
2023-04-07T06:15:41.161Z,16.83
2023-04-07T06:18:07.606Z,16.90
2023-04-07T06:20:33.961Z,16.98
2023-04-07T06:23:00.454Z,17.03
2023-04-07T06:25:28.183Z,17.09
2023-04-07T06:27:59.023Z,17.14
2023-04-07T06:30:25.549Z,17.19
2023-04-07T06:32:52.036Z,17.20
2023-04-07T06:35:18.614Z,17.22
2023-04-07T06:37:45.122Z,17.28
2023-04-07T06:40:14.807Z,17.31
2023-04-07T06:42:41.416Z,17.36
2023-04-07T06:45:08.235Z,17.42
2023-04-07T06:47:34.825Z,17.54
2023-04-07T06:50:01.286Z,17.72
2023-04-07T06:52:31.992Z,17.94
2023-04-07T06:55:04.499Z,18.21
2023-04-07T06:57:32.190Z,18.48
2023-04-07T06:59:58.667Z,18.65
2023-04-07T07:02:25.307Z,18.75
2023-04-07T07:04:56.295Z,18.74
2023-04-07T07:07:22.769Z,18.63
2023-04-07T07:09:51.610Z,18.64
2023-04-07T07:12:17.967Z,18.65
2023-04-07T07:14:45.727Z,18.79
2023-04-07T07:17:14.479Z,18.91
2023-04-07T07:19:40.967Z,19.09
2023-04-07T07:22:08.922Z,19.18
2023-04-07T07:24:37.892Z,19.13
2023-04-07T07:27:05.653Z,19.16
2023-04-07T07:29:32.170Z,19.22
2023-04-07T07:31:59.221Z,19.29
2023-04-07T07:34:26.863Z,19.41
2023-04-07T07:36:53.345Z,19.58
2023-04-07T07:39:19.816Z,19.69
2023-04-07T07:41:47.636Z,19.69
2023-04-07T07:44:14.164Z,19.74
2023-04-07T07:46:40.727Z,19.85
2023-04-07T07:49:08.094Z,19.82
2023-04-07T07:51:35.873Z,19.79
2023-04-07T07:54:02.399Z,19.95
2023-04-07T07:56:29.834Z,20.01
2023-04-07T07:58:58.064Z,19.94
2023-04-07T08:01:25.020Z,19.99
2023-04-07T08:03:51.962Z,20.06
2023-04-07T08:06:18.906Z,20.14
2023-04-07T08:08:45.397Z,20.49
2023-04-07T08:11:11.790Z,20.73
2023-04-07T08:13:39.626Z,21.15
2023-04-07T08:16:06.303Z,21.31
2023-04-07T08:18:45.447Z,21.41
2023-04-07T08:21:11.981Z,21.42
2023-04-07T08:23:38.565Z,21.72
2023-04-07T08:26:15.653Z,21.64
2023-04-07T08:28:41.965Z,21.47
2023-04-07T08:31:08.552Z,21.40
2023-04-07T08:33:34.948Z,21.79
2023-04-07T08:36:02.744Z,22.29
2023-04-07T08:38:29.204Z,22.79
2023-04-07T08:40:56.820Z,22.60
2023-04-07T08:43:24.755Z,22.47
2023-04-07T08:45:53.605Z,22.75
2023-04-07T08:48:20.296Z,22.66
2023-04-07T08:50:46.661Z,22.54
2023-04-07T08:53:13.213Z,22.26
2023-04-07T08:55:39.782Z,22.18
2023-04-07T08:58:06.203Z,22.42
2023-04-07T09:00:32.524Z,22.81
2023-04-07T09:02:59.026Z,23.01
2023-04-07T09:05:25.558Z,22.66
2023-04-07T09:07:51.995Z,22.32
2023-04-07T09:10:18.771Z,22.17
2023-04-07T09:12:45.257Z,21.84
2023-04-07T09:15:12.933Z,21.76
2023-04-07T09:17:43.387Z,22.10
2023-04-07T09:20:09.910Z,21.87
2023-04-07T09:22:36.531Z,21.68
2023-04-07T09:25:02.932Z,21.63
2023-04-07T09:27:29.449Z,21.61
2023-04-07T09:29:56.136Z,21.61
2023-04-07T09:32:24.498Z,21.66
2023-04-07T09:34:51.259Z,21.67
2023-04-07T09:37:18.909Z,21.64
2023-04-07T09:39:45.419Z,21.66
2023-04-07T09:42:11.801Z,21.67
2023-04-07T09:44:38.202Z,21.66
2023-04-07T09:47:04.958Z,21.65
2023-04-07T09:49:31.530Z,21.67
2023-04-07T09:51:59.255Z,21.69
2023-04-07T09:54:25.789Z,21.69
2023-04-07T09:56:52.194Z,21.68
2023-04-07T09:59:18.753Z,21.69
2023-04-07T10:01:45.355Z,21.70
2023-04-07T10:04:13.107Z,21.71
2023-04-07T10:06:39.556Z,21.74
2023-04-07T10:09:06.032Z,21.78
2023-04-07T10:11:32.636Z,21.82
2023-04-07T10:14:02.087Z,21.84
2023-04-07T10:16:28.715Z,21.83
2023-04-07T10:18:55.545Z,21.85
2023-04-07T10:21:22.128Z,21.84
2023-04-07T10:23:48.992Z,21.85
2023-04-07T10:26:15.870Z,21.86
2023-04-07T10:28:42.974Z,21.88
2023-04-07T10:31:10.821Z,21.90
2023-04-07T10:33:37.424Z,21.94
2023-04-07T10:36:04.138Z,21.85
2023-04-07T10:38:30.730Z,21.88
2023-04-07T10:40:57.595Z,21.87
2023-04-07T10:43:25.156Z,21.92
2023-04-07T10:45:51.848Z,21.86
2023-04-07T10:48:18.452Z,21.90
2023-04-07T10:50:44.950Z,21.90
2023-04-07T10:53:11.318Z,21.84
2023-04-07T10:55:48.172Z,21.83
2023-04-07T10:58:14.612Z,21.86
2023-04-07T11:00:42.134Z,21.82
2023-04-07T11:03:08.716Z,21.81
2023-04-07T11:05:35.381Z,21.88
2023-04-07T11:08:01.808Z,21.89
2023-04-07T11:10:28.235Z,21.81
2023-04-07T11:12:54.771Z,21.78
2023-04-07T11:15:21.366Z,21.88
2023-04-07T11:17:47.944Z,21.91
2023-04-07T11:20:14.281Z,21.86
2023-04-07T11:22:40.761Z,21.85
2023-04-07T11:25:07.280Z,21.88
2023-04-07T11:27:36.026Z,21.85
2023-04-07T11:30:02.576Z,21.80
2023-04-07T11:32:29.042Z,21.80
2023-04-07T11:34:57.644Z,21.82
2023-04-07T11:37:28.502Z,21.78
2023-04-07T11:39:54.930Z,21.76
2023-04-07T11:42:22.685Z,21.74
2023-04-07T11:44:51.543Z,21.80
2023-04-07T11:47:17.907Z,21.81
2023-04-07T11:49:46.772Z,21.80
2023-04-07T11:52:13.515Z,21.81
2023-04-07T11:54:40.194Z,21.81
2023-04-07T11:57:08.504Z,21.79
2023-04-07T11:59:38.926Z,21.77
2023-04-07T12:02:05.709Z,21.78
2023-04-07T12:04:32.302Z,21.74
2023-04-07T12:07:01.077Z,21.72
2023-04-07T12:09:27.507Z,21.73
2023-04-07T12:11:53.975Z,21.74
2023-04-07T12:14:20.520Z,21.78
2023-04-07T12:16:49.981Z,21.79
2023-04-07T12:19:17.750Z,21.79
2023-04-07T12:21:44.460Z,21.81
2023-04-07T12:24:10.990Z,21.80
2023-04-07T12:26:38.560Z,21.79
2023-04-07T12:29:05.000Z,21.79
2023-04-07T12:31:31.732Z,21.75
2023-04-07T12:33:58.659Z,21.70
2023-04-07T12:36:25.045Z,21.67
2023-04-07T12:38:51.552Z,21.66
2023-04-07T12:41:19.135Z,21.65
2023-04-07T12:43:47.233Z,21.63
2023-04-07T12:46:20.223Z,21.64
2023-04-07T12:48:47.002Z,21.65
2023-04-07T12:51:14.633Z,21.64
2023-04-07T12:53:41.216Z,21.64
2023-04-07T12:56:11.630Z,21.61
2023-04-07T12:58:38.129Z,21.61
2023-04-07T13:01:06.905Z,21.61
2023-04-07T13:03:36.268Z,21.63
2023-04-07T13:06:03.144Z,21.62
2023-04-07T13:11:23.424Z,21.61
2023-04-07T13:13:53.679Z,21.59
2023-04-07T13:16:27.094Z,21.57
2023-04-07T13:18:53.828Z,21.52
2023-04-07T13:21:44.261Z,21.53
2023-04-07T13:24:09.129Z,21.54
2023-04-07T13:26:35.639Z,21.54
2023-04-07T13:29:02.297Z,21.54
2023-04-07T13:31:28.866Z,21.55
2023-04-07T13:33:55.507Z,21.55
2023-04-07T13:36:23.092Z,21.53
2023-04-07T13:38:51.781Z,21.50
2023-04-07T13:41:18.105Z,21.48
2023-04-07T13:43:44.693Z,21.46
2023-04-07T13:46:20.773Z,21.47
2023-04-07T13:48:51.148Z,21.46
2023-04-07T13:51:17.394Z,21.44
2023-04-07T13:53:43.607Z,21.43
2023-04-07T13:56:09.809Z,21.42
2023-04-07T13:58:36.396Z,21.41
2023-04-07T14:01:02.631Z,21.39
2023-04-07T14:03:28.963Z,21.38
2023-04-07T14:05:55.346Z,21.38
2023-04-07T14:08:21.549Z,21.37
2023-04-07T14:10:48.074Z,21.35
2023-04-07T14:13:14.354Z,21.34
2023-04-07T14:15:40.600Z,21.34
2023-04-07T14:18:07.404Z,21.33
2023-04-07T14:20:33.675Z,21.32
2023-04-07T14:22:59.878Z,21.30
2023-04-07T14:25:26.531Z,21.30
2023-04-07T14:27:52.756Z,21.29
2023-04-07T14:30:19.546Z,21.28
2023-04-07T14:32:45.876Z,21.27
2023-04-07T14:35:12.199Z,21.26
2023-04-07T14:37:38.419Z,21.25
2023-04-07T14:40:05.017Z,21.24
2023-04-07T14:42:31.291Z,21.22
2023-04-07T14:44:57.553Z,21.21
2023-04-07T14:47:23.892Z,21.21
2023-04-07T14:49:51.945Z,21.19
2023-04-07T14:52:19.756Z,21.18
2023-04-07T14:54:46.099Z,21.17
2023-04-07T14:57:12.282Z,21.17
2023-04-07T14:59:40.653Z,21.15
2023-04-07T15:02:06.970Z,21.15
2023-04-07T15:04:33.502Z,21.17
2023-04-07T15:06:59.970Z,21.17
2023-04-07T15:09:26.289Z,21.17
2023-04-07T15:11:52.645Z,21.16
2023-04-07T15:14:18.834Z,21.16
2023-04-07T15:16:45.246Z,21.16
2023-04-07T15:19:11.440Z,21.16
2023-04-07T15:21:37.625Z,21.15
2023-04-07T15:24:04.007Z,21.15
2023-04-07T15:26:30.210Z,21.14
2023-04-07T15:28:59.481Z,21.13
2023-04-07T15:31:25.858Z,21.12
2023-04-07T15:33:52.420Z,21.11
2023-04-07T15:36:18.648Z,21.11
2023-04-07T15:38:44.906Z,21.10
2023-04-07T15:41:11.162Z,21.08
2023-04-07T15:43:37.591Z,21.07
2023-04-07T15:46:03.800Z,21.07
2023-04-07T15:48:30.294Z,21.05
2023-04-07T15:50:56.547Z,21.04
2023-04-07T15:53:23.307Z,21.04
2023-04-07T15:55:49.507Z,21.04
2023-04-07T15:58:15.728Z,21.03
2023-04-07T16:00:41.919Z,21.02
2023-04-07T16:03:08.421Z,21.01
2023-04-07T16:05:34.772Z,21.00
2023-04-07T16:08:01.154Z,21.00
2023-04-07T16:10:27.495Z,20.97
2023-04-07T16:12:53.717Z,20.97
2023-04-07T16:15:32.410Z,20.96
2023-04-07T16:18:05.565Z,20.94
2023-04-07T16:20:31.996Z,20.94
2023-04-07T16:22:58.192Z,20.93
2023-04-07T16:25:24.482Z,20.91
2023-04-07T16:27:50.852Z,20.90
2023-04-07T16:30:17.126Z,20.89
2023-04-07T16:32:43.512Z,20.88
2023-04-07T16:35:10.098Z,20.87
2023-04-07T16:37:39.459Z,20.85
2023-04-07T16:40:06.090Z,20.85
2023-04-07T16:42:33.547Z,20.83
2023-04-07T16:45:00.231Z,20.80
2023-04-07T16:47:26.873Z,20.79
2023-04-07T16:49:53.492Z,20.78
2023-04-07T16:52:21.183Z,20.76
2023-04-07T16:54:47.760Z,20.75
2023-04-07T16:57:14.434Z,20.75
2023-04-07T16:59:42.885Z,20.74
2023-04-07T17:02:09.688Z,20.71
2023-04-07T17:04:36.377Z,20.70
2023-04-07T17:07:03.140Z,20.68
2023-04-07T17:09:31.964Z,20.66
2023-04-07T17:12:03.992Z,20.65
2023-04-07T17:14:30.546Z,20.62
2023-04-07T17:16:59.612Z,20.61
2023-04-07T17:19:26.235Z,20.60
2023-04-07T17:21:52.629Z,20.57
2023-04-07T17:24:21.454Z,20.56
2023-04-07T17:26:49.951Z,20.54
2023-04-07T17:29:16.473Z,20.53
2023-04-07T17:31:43.075Z,20.50
2023-04-07T17:34:09.494Z,20.49
2023-04-07T17:36:38.957Z,20.45
2023-04-07T17:39:07.677Z,20.44
2023-04-07T17:41:34.114Z,20.42
2023-04-07T17:44:00.727Z,20.39
2023-04-07T17:46:27.257Z,20.37
2023-04-07T17:48:53.676Z,20.35
2023-04-07T17:51:20.200Z,20.33
2023-04-07T17:53:50.139Z,20.31
2023-04-07T17:56:16.928Z,20.28
2023-04-07T17:58:44.909Z,20.26
2023-04-07T18:01:12.987Z,20.23
2023-04-07T18:03:42.359Z,20.21
2023-04-07T18:06:08.997Z,20.20
2023-04-07T18:08:37.301Z,20.17
2023-04-07T18:11:07.103Z,20.15
2023-04-07T18:13:33.786Z,20.12
2023-04-07T18:16:00.353Z,20.10
2023-04-07T18:18:28.401Z,20.08
2023-04-07T18:20:54.814Z,20.05
2023-04-07T18:23:21.236Z,20.03
2023-04-07T18:25:49.005Z,20.01
2023-04-07T18:28:15.357Z,19.98
2023-04-07T18:30:41.798Z,19.97
2023-04-07T18:33:10.837Z,19.94
2023-04-07T18:35:38.841Z,19.93
2023-04-07T18:38:05.403Z,19.90
2023-04-07T18:40:31.886Z,19.89
2023-04-07T18:42:58.371Z,19.79
2023-04-07T18:45:24.969Z,19.85
2023-04-07T18:47:51.431Z,19.81
2023-04-07T18:50:17.942Z,19.79
2023-04-07T18:52:44.529Z,19.78
2023-04-07T18:55:11.188Z,19.75
2023-04-07T18:57:44.849Z,19.74
2023-04-07T19:00:13.450Z,19.71
2023-04-07T19:02:40.581Z,19.70
2023-04-07T19:05:07.357Z,19.68
2023-04-07T19:07:35.186Z,19.67
2023-04-07T19:10:02.858Z,19.65
2023-04-07T19:12:29.224Z,19.64
2023-04-07T19:14:55.712Z,19.61
2023-04-07T19:17:23.288Z,19.60
2023-04-07T19:19:50.077Z,19.58
2023-04-07T19:22:20.889Z,19.57
2023-04-07T19:24:49.880Z,19.55
2023-04-07T19:27:16.240Z,19.54
2023-04-07T19:29:44.489Z,19.52
2023-04-07T19:32:14.295Z,19.49
2023-04-07T19:34:40.697Z,19.48
2023-04-07T19:37:08.461Z,19.48
2023-04-07T19:39:35.224Z,19.45
2023-04-07T19:42:04.304Z,19.44
2023-04-07T19:44:30.771Z,19.42
2023-04-07T19:47:00.897Z,19.41
2023-04-07T19:49:27.611Z,19.39
2023-04-07T19:51:53.982Z,19.38
2023-04-07T19:54:20.430Z,19.35
2023-04-07T19:56:46.894Z,19.35
2023-04-07T19:59:15.555Z,19.32
2023-04-07T20:01:42.653Z,19.30
2023-04-07T20:04:09.341Z,19.29
2023-04-07T20:06:35.846Z,19.28
2023-04-07T20:09:03.550Z,19.26
2023-04-07T20:11:33.187Z,19.24
2023-04-07T20:14:01.766Z,19.22
2023-04-07T20:16:31.017Z,19.20
2023-04-07T20:18:57.573Z,19.18
2023-04-07T20:21:24.896Z,19.16
2023-04-07T20:23:51.420Z,19.16
2023-04-07T20:26:17.835Z,19.13
2023-04-07T20:28:44.321Z,19.13
2023-04-07T20:31:10.732Z,19.11
2023-04-07T20:33:41.992Z,19.09
2023-04-07T20:36:08.660Z,19.08
2023-04-07T20:38:35.334Z,19.06
2023-04-07T20:41:01.736Z,19.04
2023-04-07T20:43:28.241Z,19.02
2023-04-07T20:45:55.793Z,19.00
2023-04-07T20:48:22.186Z,18.99
2023-04-07T20:50:48.588Z,18.97
2023-04-07T20:53:15.189Z,18.96
2023-04-07T20:55:41.697Z,18.95
2023-04-07T20:58:09.451Z,18.93
2023-04-07T21:00:35.983Z,18.90
2023-04-07T21:03:02.453Z,18.89
2023-04-07T21:05:29.141Z,18.87
2023-04-07T21:07:57.191Z,18.86
2023-04-07T21:10:23.757Z,18.84
2023-04-07T21:12:50.593Z,18.82
2023-04-07T21:15:17.089Z,18.80
2023-04-07T21:17:43.795Z,18.79
2023-04-07T21:20:10.284Z,18.77
2023-04-07T21:22:37.748Z,18.76
2023-04-07T21:25:04.176Z,18.74
2023-04-07T21:27:30.613Z,18.72
2023-04-07T21:29:57.142Z,18.70
2023-04-07T21:32:24.071Z,18.69
2023-04-07T21:34:50.671Z,18.68
2023-04-07T21:37:17.161Z,18.66
2023-04-07T21:39:45.757Z,18.65
2023-04-07T21:42:13.379Z,18.63
2023-04-07T21:44:39.860Z,18.61
2023-04-07T21:47:06.363Z,18.60
2023-04-07T21:49:34.303Z,18.59
2023-04-07T21:52:00.755Z,18.57
2023-04-07T21:54:27.425Z,18.56
2023-04-07T21:56:53.892Z,18.51
2023-04-07T21:59:21.380Z,18.51
2023-04-07T22:01:49.126Z,18.49
2023-04-07T22:04:17.026Z,18.49
2023-04-07T22:06:45.610Z,18.48
2023-04-07T22:09:12.011Z,18.47
2023-04-07T22:11:38.416Z,18.45
2023-04-07T22:14:04.821Z,18.44
2023-04-07T22:16:32.957Z,18.42
2023-04-07T22:18:59.468Z,18.41
2023-04-07T22:21:25.780Z,18.40
2023-04-07T22:23:52.203Z,18.39
2023-04-07T22:26:18.715Z,18.37
2023-04-07T22:28:45.378Z,18.36
2023-04-07T22:31:12.047Z,18.36
2023-04-07T22:33:38.644Z,18.34
2023-04-07T22:36:05.249Z,18.33
2023-04-07T22:38:34.394Z,18.30
2023-04-07T22:41:00.784Z,18.32
2023-04-07T22:43:27.219Z,18.30
2023-04-07T22:46:00.208Z,18.28
2023-04-07T22:48:28.325Z,18.27
2023-04-07T22:50:56.212Z,18.26
2023-04-07T22:53:22.677Z,18.23
2023-04-07T22:55:49.431Z,18.23
2023-04-07T22:58:15.818Z,18.22
2023-04-07T23:00:42.447Z,18.20
2023-04-07T23:03:09.051Z,18.20
2023-04-07T23:05:35.776Z,18.18
2023-04-07T23:08:02.290Z,18.19
2023-04-07T23:10:29.968Z,18.16
2023-04-07T23:12:56.422Z,18.16
2023-04-07T23:15:23.064Z,18.15
2023-04-07T23:17:52.340Z,18.13
2023-04-07T23:20:21.363Z,18.11
2023-04-07T23:22:47.956Z,18.10
2023-04-07T23:25:22.059Z,18.10
2023-04-07T23:27:48.648Z,18.09
2023-04-07T23:30:15.202Z,18.08
2023-04-07T23:32:43.169Z,18.07
2023-04-07T23:35:09.704Z,18.05
2023-04-07T23:37:36.147Z,18.04
2023-04-07T23:40:02.877Z,18.03
2023-04-07T23:42:30.515Z,18.03
2023-04-07T23:44:57.005Z,18.01
2023-04-07T23:47:23.624Z,17.99
2023-04-07T23:49:50.383Z,17.99
2023-04-07T23:52:17.021Z,17.99
2023-04-07T23:54:43.441Z,17.97
2023-04-07T23:57:09.943Z,17.97
2023-04-07T23:59:36.476Z,17.96
